createdAt,value
2023-05-07T00:00:48.020Z,2.97
2023-05-07T00:03:15.843Z,2.80
2023-05-07T00:05:43.645Z,2.80
2023-05-07T00:08:11.596Z,2.73
2023-05-07T00:10:39.379Z,3.20
2023-05-07T00:13:07.168Z,2.63
2023-05-07T00:15:34.966Z,2.87
2023-05-07T00:18:04.156Z,3.00
2023-05-07T00:20:32.770Z,2.60
2023-05-07T00:23:01.746Z,3.07
2023-05-07T00:25:29.469Z,2.50
2023-05-07T00:27:58.514Z,2.70
2023-05-07T00:30:26.238Z,2.80
2023-05-07T00:32:53.983Z,3.13
2023-05-07T00:35:23.296Z,3.20
2023-05-07T00:37:50.989Z,3.33
2023-05-07T00:40:18.782Z,3.80
2023-05-07T00:42:48.069Z,3.87
2023-05-07T00:45:16.704Z,3.67
2023-05-07T00:47:45.145Z,3.90
2023-05-07T00:50:13.763Z,3.73
2023-05-07T00:52:43.673Z,4.10
2023-05-07T00:55:11.982Z,4.40
2023-05-07T00:57:42.169Z,4.00
2023-05-07T01:00:11.555Z,3.87
2023-05-07T01:02:40.233Z,3.60
2023-05-07T01:05:11.047Z,3.63
2023-05-07T01:07:41.972Z,4.27
2023-05-07T01:10:13.401Z,3.60
2023-05-07T01:12:43.448Z,4.00
2023-05-07T01:15:12.181Z,3.53
2023-05-07T01:17:43.141Z,3.60
2023-05-07T01:20:17.640Z,3.23
2023-05-07T01:22:48.165Z,3.50
2023-05-07T01:25:17.255Z,3.63
2023-05-07T01:27:49.499Z,3.53
2023-05-07T01:30:18.769Z,3.77
2023-05-07T01:32:51.607Z,3.70
2023-05-07T01:35:21.664Z,4.10
2023-05-07T01:37:51.733Z,3.67
2023-05-07T01:40:19.919Z,4.40
2023-05-07T01:42:49.183Z,3.90
2023-05-07T01:45:16.972Z,4.33
2023-05-07T01:47:46.021Z,4.60
2023-05-07T01:50:14.799Z,4.67
2023-05-07T01:52:42.921Z,5.43
2023-05-07T01:55:12.306Z,5.47
2023-05-07T01:57:40.115Z,5.27
2023-05-07T02:00:10.117Z,5.40
2023-05-07T02:02:44.505Z,5.20
2023-05-07T02:05:23.125Z,5.40
2023-05-07T02:07:57.904Z,5.30
2023-05-07T02:10:29.129Z,5.17
2023-05-07T02:12:57.495Z,4.87
2023-05-07T02:15:25.648Z,5.10
2023-05-07T02:18:01.937Z,5.40
2023-05-07T02:20:29.994Z,5.10
2023-05-07T02:22:58.295Z,4.87
2023-05-07T02:25:30.183Z,5.10
2023-05-07T02:27:58.194Z,4.53
2023-05-07T02:30:35.200Z,4.73
2023-05-07T02:33:03.213Z,4.50
2023-05-07T02:35:31.039Z,4.50
2023-05-07T02:37:58.747Z,4.67
2023-05-07T02:40:27.423Z,4.90
2023-05-07T02:42:56.626Z,4.20
2023-05-07T02:45:24.527Z,4.77
2023-05-07T02:47:54.686Z,4.43
2023-05-07T02:50:22.615Z,4.53
2023-05-07T02:52:50.411Z,4.10
2023-05-07T02:55:18.330Z,4.53
2023-05-07T02:57:46.052Z,4.57
2023-05-07T03:00:18.760Z,5.03
2023-05-07T03:03:02.233Z,4.43
2023-05-07T03:05:30.403Z,5.00
2023-05-07T03:07:58.105Z,4.93
2023-05-07T03:10:25.808Z,5.30
2023-05-07T03:12:53.667Z,5.63
2023-05-07T03:15:22.976Z,4.57
2023-05-07T03:17:50.828Z,5.07
2023-05-07T03:20:18.808Z,4.80
2023-05-07T03:22:46.936Z,5.30
2023-05-07T03:25:15.200Z,5.27
2023-05-07T03:27:43.188Z,5.60
2023-05-07T03:30:13.140Z,5.40
2023-05-07T03:32:42.829Z,5.53
2023-05-07T03:35:13.272Z,6.10
2023-05-07T03:37:42.404Z,5.30
2023-05-07T03:40:13.580Z,5.60
2023-05-07T03:42:48.829Z,6.10
2023-05-07T03:45:18.225Z,5.20
2023-05-07T03:47:52.836Z,5.03
2023-05-07T03:50:22.719Z,5.20
2023-05-07T03:52:50.729Z,4.93
2023-05-07T03:55:21.717Z,5.83
2023-05-07T03:57:54.527Z,4.50
2023-05-07T04:00:23.156Z,4.27
2023-05-07T04:02:52.303Z,4.73
2023-05-07T04:05:27.340Z,4.90
2023-05-07T04:08:00.383Z,4.97
2023-05-07T04:10:36.177Z,5.40
2023-05-07T04:13:08.349Z,6.80
2023-05-07T04:15:37.813Z,6.40
2023-05-07T04:18:10.456Z,6.00
2023-05-07T04:20:39.461Z,6.57
2023-05-07T04:23:11.659Z,6.00
2023-05-07T04:25:39.887Z,6.30
2023-05-07T04:28:32.542Z,6.70
2023-05-07T04:31:00.593Z,5.80
2023-05-07T04:33:30.516Z,5.90
2023-05-07T04:36:03.641Z,6.20
2023-05-07T04:38:32.633Z,6.20
2023-05-07T04:41:06.272Z,6.37
2023-05-07T04:43:36.801Z,6.50
2023-05-07T04:46:04.693Z,6.67
2023-05-07T04:48:34.194Z,6.63
2023-05-07T04:51:03.643Z,6.43
2023-05-07T04:53:31.990Z,5.83
2023-05-07T04:56:00.475Z,6.20
2023-05-07T04:58:34.313Z,7.03
2023-05-07T05:01:02.528Z,6.70
2023-05-07T05:03:31.234Z,5.80
2023-05-07T05:06:02.503Z,6.97
2023-05-07T05:08:34.204Z,6.60
2023-05-07T05:11:04.143Z,6.67
2023-05-07T05:13:34.406Z,7.03
2023-05-07T05:16:07.940Z,7.13
2023-05-07T05:18:36.809Z,7.80
2023-05-07T05:21:06.300Z,8.23
2023-05-07T05:23:35.012Z,8.40
2023-05-07T05:26:02.956Z,9.70
2023-05-07T05:28:33.405Z,8.10
2023-05-07T05:31:01.249Z,9.43
2023-05-07T05:33:33.024Z,10.40
2023-05-07T05:36:08.224Z,9.77
2023-05-07T05:38:38.421Z,8.90
2023-05-07T05:41:06.321Z,10.33
2023-05-07T05:43:34.084Z,10.30
2023-05-07T05:46:02.410Z,10.43
2023-05-07T05:48:31.088Z,11.77
2023-05-07T05:51:00.583Z,10.03
2023-05-07T05:53:29.768Z,9.50
2023-05-07T05:55:57.784Z,11.23
2023-05-07T05:58:25.946Z,11.17
2023-05-07T06:00:59.664Z,9.97
2023-05-07T06:03:28.966Z,9.60
2023-05-07T06:05:59.061Z,10.57
2023-05-07T06:08:30.931Z,10.00
2023-05-07T06:10:59.337Z,10.73
2023-05-07T06:13:27.147Z,8.83
2023-05-07T06:15:57.524Z,10.00
2023-05-07T06:18:26.055Z,9.90
2023-05-07T06:20:53.894Z,9.03
2023-05-07T06:23:26.755Z,9.20
2023-05-07T06:25:56.017Z,9.43
2023-05-07T06:28:28.974Z,7.80
2023-05-07T06:30:57.070Z,7.57
2023-05-07T06:33:24.822Z,7.67
2023-05-07T06:35:53.265Z,6.27
2023-05-07T06:38:21.790Z,8.03
2023-05-07T06:40:51.692Z,7.23
2023-05-07T06:43:20.894Z,6.23
2023-05-07T06:45:55.776Z,5.70
2023-05-07T06:48:23.653Z,5.60
2023-05-07T06:50:58.675Z,5.93
2023-05-07T06:53:27.712Z,7.33
2023-05-07T06:55:57.401Z,6.50
2023-05-07T06:58:26.691Z,6.80
2023-05-07T07:00:55.055Z,6.27
2023-05-07T07:03:23.388Z,6.03
2023-05-07T07:05:54.218Z,5.47
2023-05-07T07:08:23.108Z,5.20
2023-05-07T07:10:51.266Z,5.83
2023-05-07T07:13:19.125Z,5.37
2023-05-07T07:15:48.660Z,4.90
2023-05-07T07:18:16.675Z,4.93
2023-05-07T07:20:45.565Z,4.60
2023-05-07T07:23:13.396Z,4.47
2023-05-07T07:25:41.418Z,4.43
2023-05-07T07:28:09.514Z,4.30
2023-05-07T07:30:40.083Z,4.17
2023-05-07T07:33:09.432Z,4.23
2023-05-07T07:35:39.268Z,4.27
2023-05-07T07:38:08.013Z,3.93
2023-05-07T07:40:36.955Z,4.23
2023-05-07T07:43:07.094Z,4.30
2023-05-07T07:45:34.855Z,3.87
2023-05-07T07:48:03.096Z,3.73
2023-05-07T07:50:43.734Z,4.23
2023-05-07T07:53:14.926Z,4.23
2023-05-07T07:55:42.922Z,4.50
2023-05-07T07:58:13.743Z,4.07
2023-05-07T08:00:42.279Z,3.80
2023-05-07T08:03:12.262Z,3.93
2023-05-07T08:05:45.808Z,3.40
2023-05-07T08:08:13.755Z,3.30
2023-05-07T08:10:43.325Z,3.30
2023-05-07T08:13:20.069Z,3.47
2023-05-07T08:15:48.610Z,2.57
2023-05-07T08:18:17.140Z,2.73
2023-05-07T08:20:48.737Z,2.63
2023-05-07T08:23:20.418Z,2.80
2023-05-07T08:25:49.403Z,2.30
2023-05-07T08:28:18.178Z,2.33
2023-05-07T08:30:45.954Z,2.30
2023-05-07T08:33:13.958Z,2.10
2023-05-07T08:35:42.277Z,2.30
2023-05-07T08:38:13.983Z,2.43
2023-05-07T08:40:43.111Z,2.40
2023-05-07T08:43:17.218Z,2.50
2023-05-07T08:45:48.505Z,2.37
2023-05-07T08:48:19.405Z,2.30
2023-05-07T08:50:54.264Z,2.40
2023-05-07T08:53:24.115Z,2.20
2023-05-07T08:55:54.697Z,1.90
2023-05-07T08:58:22.653Z,2.30
2023-05-07T09:00:53.644Z,2.47
2023-05-07T09:03:21.960Z,2.97
2023-05-07T09:05:53.459Z,2.10
2023-05-07T09:08:28.585Z,3.97
2023-05-07T09:10:59.354Z,1.83
2023-05-07T09:13:29.520Z,2.83
2023-05-07T09:15:58.742Z,2.30
2023-05-07T09:18:27.880Z,2.50
2023-05-07T09:20:57.437Z,2.17
2023-05-07T09:23:29.461Z,1.70
2023-05-07T09:26:03.449Z,1.63
2023-05-07T09:28:34.919Z,1.80
2023-05-07T09:31:03.428Z,2.13
2023-05-07T09:33:31.820Z,2.23
2023-05-07T09:36:06.069Z,1.90
2023-05-07T09:38:37.823Z,2.70
2023-05-07T09:41:08.386Z,2.43
2023-05-07T09:43:44.240Z,2.07
2023-05-07T09:46:16.353Z,2.37
2023-05-07T09:48:51.319Z,2.00
2023-05-07T09:51:27.763Z,1.70
2023-05-07T09:53:58.938Z,1.73
2023-05-07T09:56:27.591Z,2.00
2023-05-07T09:58:58.195Z,1.70
2023-05-07T10:01:27.651Z,1.87
2023-05-07T10:03:56.560Z,2.10
2023-05-07T10:06:26.465Z,2.07
2023-05-07T10:08:54.958Z,2.00
2023-05-07T10:11:24.421Z,1.90
2023-05-07T10:13:54.686Z,1.87
2023-05-07T10:16:23.253Z,2.00
2023-05-07T10:18:52.121Z,2.03
2023-05-07T10:21:25.871Z,1.80
2023-05-07T10:24:01.923Z,1.50
2023-05-07T10:26:36.258Z,2.20
2023-05-07T10:29:13.017Z,1.90
2023-05-07T10:31:57.919Z,1.83
2023-05-07T10:34:31.961Z,1.70
2023-05-07T10:37:00.320Z,2.00
2023-05-07T10:39:29.477Z,2.00
2023-05-07T10:41:59.181Z,2.27
2023-05-07T10:44:29.129Z,1.63
2023-05-07T10:47:10.404Z,2.00
2023-05-07T10:50:26.151Z,1.97
2023-05-07T10:53:29.410Z,1.90
2023-05-07T10:56:28.899Z,1.60
2023-05-07T10:59:43.064Z,2.23
2023-05-07T11:03:01.831Z,1.90
2023-05-07T11:05:38.397Z,1.73
2023-05-07T11:08:21.564Z,1.90
2023-05-07T11:10:59.689Z,2.00
2023-05-07T11:13:51.499Z,2.20
2023-05-07T11:16:31.195Z,2.03
2023-05-07T11:19:07.442Z,1.93
2023-05-07T11:21:43.449Z,2.13
2023-05-07T11:24:41.642Z,2.10
2023-05-07T11:27:10.404Z,2.00
2023-05-07T11:29:38.507Z,2.47
2023-05-07T11:32:10.997Z,2.00
2023-05-07T11:34:46.573Z,1.80
2023-05-07T11:37:19.081Z,1.90
2023-05-07T11:40:07.983Z,2.37
2023-05-07T11:42:38.328Z,2.03
2023-05-07T11:45:07.842Z,2.20
2023-05-07T11:47:36.375Z,1.90
2023-05-07T11:50:06.751Z,1.90
2023-05-07T11:52:37.466Z,2.00
2023-05-07T11:55:06.238Z,2.07
2023-05-07T11:57:35.574Z,2.10
2023-05-07T12:00:05.096Z,2.10
2023-05-07T12:02:40.516Z,2.30
2023-05-07T12:05:09.322Z,1.97
2023-05-07T12:07:38.677Z,2.00
2023-05-07T12:10:07.575Z,2.00
2023-05-07T12:12:41.357Z,2.20
2023-05-07T12:15:11.252Z,2.47
2023-05-07T12:17:39.859Z,2.27
2023-05-07T12:20:09.513Z,1.90
2023-05-07T12:22:39.060Z,2.00
2023-05-07T12:25:07.926Z,2.40
2023-05-07T12:27:39.397Z,2.00
2023-05-07T12:30:08.449Z,1.87
2023-05-07T12:32:38.202Z,1.90
2023-05-07T12:35:08.253Z,2.00
2023-05-07T12:37:39.144Z,2.30
2023-05-07T12:40:08.388Z,2.40
2023-05-07T12:42:38.598Z,2.70
2023-05-07T12:45:11.158Z,1.93
2023-05-07T12:47:39.695Z,2.20
2023-05-07T12:50:08.744Z,2.00
2023-05-07T12:52:36.769Z,2.30
2023-05-07T12:55:09.747Z,1.90
2023-05-07T12:57:41.685Z,2.10
2023-05-07T13:00:10.748Z,2.47
2023-05-07T13:02:41.084Z,2.80
2023-05-07T13:05:10.314Z,2.63
2023-05-07T13:07:38.613Z,3.20
2023-05-07T13:10:09.308Z,2.80
2023-05-07T13:12:37.379Z,2.70
2023-05-07T13:15:05.723Z,3.00
2023-05-07T13:17:33.689Z,2.63
2023-05-07T13:20:01.485Z,2.53
2023-05-07T13:22:30.125Z,4.10
2023-05-07T13:24:57.863Z,3.33
2023-05-07T13:27:27.042Z,3.50
2023-05-07T13:29:54.895Z,3.20
2023-05-07T13:32:22.718Z,3.70
2023-05-07T13:34:50.612Z,3.50
2023-05-07T13:37:18.304Z,3.80
2023-05-07T13:39:46.698Z,3.97
2023-05-07T13:42:14.588Z,4.50
2023-05-07T13:44:44.788Z,4.70
2023-05-07T13:47:13.065Z,4.03
2023-05-07T13:49:41.045Z,3.57
2023-05-07T13:52:08.852Z,4.27
2023-05-07T13:54:36.608Z,4.13
2023-05-07T13:57:04.533Z,3.90
2023-05-07T13:59:32.306Z,4.40
2023-05-07T14:02:01.714Z,4.07
2023-05-07T14:04:29.642Z,4.77
2023-05-07T14:06:57.411Z,4.70
2023-05-07T14:09:25.121Z,4.73
2023-05-07T14:11:53.301Z,4.57
2023-05-07T14:14:21.450Z,4.13
2023-05-07T14:16:50.887Z,5.40
2023-05-07T14:19:20.638Z,5.70
2023-05-07T14:21:48.368Z,5.40
2023-05-07T14:24:27.243Z,5.57
2023-05-07T14:27:02.585Z,6.20
2023-05-07T14:29:30.563Z,5.73
2023-05-07T14:31:58.432Z,6.80
2023-05-07T14:34:27.645Z,5.73
2023-05-07T14:36:56.312Z,6.00
2023-05-07T14:39:24.200Z,5.90
2023-05-07T14:41:55.645Z,6.33
2023-05-07T14:44:23.426Z,5.70
2023-05-07T14:46:52.295Z,6.33
2023-05-07T14:49:20.410Z,6.00
2023-05-07T14:51:49.959Z,5.73
2023-05-07T14:54:18.503Z,5.50
2023-05-07T14:56:46.317Z,5.13
2023-05-07T14:59:14.214Z,6.70
2023-05-07T15:01:46.382Z,6.80
2023-05-07T15:04:14.417Z,5.63
2023-05-07T15:06:43.923Z,6.10
2023-05-07T15:09:12.995Z,6.17
2023-05-07T15:11:40.825Z,7.57
2023-05-07T15:14:09.077Z,7.90
2023-05-07T15:16:36.959Z,6.10
2023-05-07T15:19:05.436Z,8.93
2023-05-07T15:21:35.518Z,8.27
2023-05-07T15:24:03.461Z,7.73
2023-05-07T15:26:32.692Z,6.97
2023-05-07T15:29:00.493Z,8.30
2023-05-07T15:31:28.323Z,8.07
2023-05-07T15:33:57.398Z,8.33
2023-05-07T15:36:25.125Z,8.27
2023-05-07T15:38:54.704Z,7.93
2023-05-07T15:41:22.547Z,8.00
2023-05-07T15:43:53.942Z,9.97
2023-05-07T15:46:24.483Z,9.53
2023-05-07T15:48:52.801Z,10.07
2023-05-07T15:51:20.978Z,9.17
2023-05-07T15:53:49.041Z,9.70
2023-05-07T15:56:16.909Z,10.33
2023-05-07T15:58:44.718Z,10.03
2023-05-07T16:01:14.261Z,9.83
2023-05-07T16:03:45.384Z,9.87
2023-05-07T16:06:13.404Z,10.80
2023-05-07T16:08:41.757Z,10.43
2023-05-07T16:11:09.817Z,9.73
2023-05-07T16:13:37.722Z,9.70
2023-05-07T16:16:06.574Z,11.20
2023-05-07T16:18:37.075Z,10.33
2023-05-07T16:21:05.059Z,10.03
2023-05-07T16:23:33.179Z,9.53
2023-05-07T16:26:00.934Z,10.27
2023-05-07T16:28:28.743Z,9.27
2023-05-07T16:30:56.592Z,9.77
2023-05-07T16:33:24.328Z,9.90
2023-05-07T16:35:56.565Z,9.77
2023-05-07T16:38:24.573Z,8.90
2023-05-07T16:40:52.409Z,10.37
2023-05-07T16:43:20.370Z,10.20
2023-05-07T16:45:48.490Z,9.83
2023-05-07T16:48:16.762Z,9.53
2023-05-07T16:50:44.817Z,10.10
2023-05-07T16:53:13.906Z,9.53
2023-05-07T16:55:42.070Z,9.10
2023-05-07T16:58:11.986Z,10.10
2023-05-07T17:03:11.706Z,8.73
2023-05-07T17:05:39.611Z,8.40
2023-05-07T17:08:07.717Z,8.10
2023-05-07T17:10:36.884Z,8.90
2023-05-07T17:13:04.813Z,8.80
2023-05-07T17:15:32.562Z,8.70
2023-05-07T17:18:00.471Z,7.90
2023-05-07T17:20:28.654Z,8.13
2023-05-07T17:22:56.639Z,7.97
2023-05-07T17:25:24.596Z,7.77
2023-05-07T17:27:53.950Z,8.03
2023-05-07T17:30:21.963Z,8.03
2023-05-07T17:32:49.696Z,7.43
2023-05-07T17:35:17.723Z,7.70
2023-05-07T17:37:52.153Z,7.60
2023-05-07T17:40:20.864Z,7.17
2023-05-07T17:42:49.170Z,7.97
2023-05-07T17:45:18.577Z,7.37
2023-05-07T17:47:46.646Z,7.77
2023-05-07T17:50:15.177Z,7.67
2023-05-07T17:52:43.421Z,7.83
2023-05-07T17:55:11.630Z,7.20
2023-05-07T17:57:39.729Z,7.70
2023-05-07T18:00:09.751Z,7.20
2023-05-07T18:02:39.715Z,6.87
2023-05-07T18:05:09.083Z,7.30
2023-05-07T18:07:37.111Z,7.43
2023-05-07T18:10:05.580Z,7.73
2023-05-07T18:12:33.412Z,7.47
2023-05-07T18:15:01.581Z,6.97
2023-05-07T18:17:29.675Z,7.60
2023-05-07T18:19:58.809Z,7.27
2023-05-07T18:22:26.553Z,7.60
2023-05-07T18:24:55.824Z,7.40
2023-05-07T18:27:23.537Z,9.10
2023-05-07T18:29:51.314Z,8.27
2023-05-07T18:32:19.362Z,8.27
2023-05-07T18:34:47.146Z,9.20
2023-05-07T18:37:16.540Z,10.33
2023-05-07T18:39:44.696Z,10.63
2023-05-07T18:42:13.105Z,9.77
2023-05-07T18:44:41.040Z,8.70
2023-05-07T18:47:09.193Z,8.83
2023-05-07T18:49:37.464Z,8.80
2023-05-07T18:52:05.738Z,8.93
2023-05-07T18:54:34.946Z,9.40
2023-05-07T18:57:02.871Z,9.43
2023-05-07T18:59:30.684Z,9.40
2023-05-07T19:01:58.691Z,9.87
2023-05-07T19:04:26.507Z,9.33
2023-05-07T19:06:54.325Z,9.87
2023-05-07T19:09:22.160Z,9.87
2023-05-07T19:11:51.308Z,10.67
2023-05-07T19:14:19.240Z,9.17
2023-05-07T19:16:49.456Z,10.40
2023-05-07T19:19:17.210Z,10.37
2023-05-07T19:21:44.918Z,9.30
2023-05-07T19:24:12.677Z,9.83
2023-05-07T19:26:41.064Z,9.90
2023-05-07T19:29:17.181Z,10.20
2023-05-07T19:31:45.922Z,9.67
2023-05-07T19:34:14.600Z,11.37
2023-05-07T19:36:42.452Z,9.73
2023-05-07T19:39:10.607Z,11.23
2023-05-07T19:41:38.446Z,10.07
2023-05-07T19:44:06.242Z,11.77
2023-05-07T19:46:35.745Z,11.30
2023-05-07T19:49:03.619Z,10.50
2023-05-07T19:51:32.796Z,11.23
2023-05-07T19:54:00.930Z,10.60
2023-05-07T19:56:28.801Z,9.87
2023-05-07T19:58:56.646Z,11.87
2023-05-07T20:01:24.470Z,10.70
2023-05-07T20:03:54.234Z,11.87
2023-05-07T20:06:23.328Z,11.43
2023-05-07T20:08:51.185Z,11.90
2023-05-07T20:11:18.924Z,10.77
2023-05-07T20:13:46.972Z,11.53
2023-05-07T20:16:14.890Z,12.27
2023-05-07T20:18:42.843Z,11.80
2023-05-07T20:21:12.735Z,11.83
2023-05-07T20:23:40.524Z,11.37
2023-05-07T20:26:08.356Z,11.13
2023-05-07T20:28:36.224Z,11.37
2023-05-07T20:31:04.011Z,11.10
2023-05-07T20:33:31.751Z,11.67
2023-05-07T20:35:59.660Z,11.50
2023-05-07T20:38:31.622Z,12.30
2023-05-07T20:40:59.409Z,12.73
2023-05-07T20:43:27.765Z,12.40
2023-05-07T20:46:00.368Z,11.23
2023-05-07T20:48:30.772Z,12.40
2023-05-07T20:50:59.546Z,12.83
2023-05-07T20:53:31.635Z,12.07
2023-05-07T20:56:00.012Z,12.00
2023-05-07T20:58:29.597Z,13.00
2023-05-07T21:00:57.444Z,12.70
2023-05-07T21:03:25.306Z,14.33
2023-05-07T21:05:53.328Z,12.93
2023-05-07T21:08:21.251Z,13.37
2023-05-07T21:10:51.011Z,13.37
2023-05-07T21:13:19.433Z,13.00
2023-05-07T21:15:47.483Z,13.47
2023-05-07T21:18:15.585Z,12.17
2023-05-07T21:20:43.321Z,12.90
2023-05-07T21:23:11.084Z,12.50
2023-05-07T21:25:40.879Z,13.00
2023-05-07T21:28:09.986Z,13.33
2023-05-07T21:30:38.067Z,13.40
2023-05-07T21:33:08.296Z,12.57
2023-05-07T21:35:36.644Z,13.03
2023-05-07T21:38:04.678Z,12.93
2023-05-07T21:40:32.547Z,11.13
2023-05-07T21:43:00.717Z,11.97
2023-05-07T21:45:29.770Z,11.40
2023-05-07T21:47:57.757Z,13.30
2023-05-07T21:50:25.704Z,10.90
2023-05-07T21:52:53.409Z,11.23
2023-05-07T21:55:21.372Z,11.37
2023-05-07T21:58:01.392Z,10.67
2023-05-07T22:00:34.360Z,9.80
2023-05-07T22:03:02.454Z,10.17
2023-05-07T22:05:30.446Z,8.80
2023-05-07T22:07:58.107Z,8.20
2023-05-07T22:10:26.023Z,8.23
2023-05-07T22:12:53.827Z,9.67
2023-05-07T22:15:22.075Z,8.23
2023-05-07T22:17:51.256Z,7.60
2023-05-07T22:20:19.673Z,8.67
2023-05-07T22:22:52.465Z,7.93
2023-05-07T22:25:21.080Z,8.50
2023-05-07T22:27:49.278Z,8.07
2023-05-07T22:30:17.576Z,7.73
2023-05-07T22:32:46.180Z,7.93
2023-05-07T22:35:15.428Z,7.60
2023-05-07T22:37:43.137Z,7.83
2023-05-07T22:40:12.003Z,8.53
2023-05-07T22:42:40.404Z,7.93
2023-05-07T22:45:09.563Z,9.20
2023-05-07T22:47:37.664Z,8.27
2023-05-07T22:50:06.485Z,8.67
2023-05-07T22:52:36.369Z,7.90
2023-05-07T22:55:04.212Z,8.33
2023-05-07T22:57:32.055Z,8.43
2023-05-07T22:59:59.783Z,9.30
2023-05-07T23:02:28.866Z,8.03
2023-05-07T23:04:59.928Z,8.63
2023-05-07T23:07:27.939Z,8.20
2023-05-07T23:09:57.158Z,7.80
2023-05-07T23:12:24.989Z,8.67
2023-05-07T23:14:53.049Z,8.77
2023-05-07T23:17:20.820Z,7.87
2023-05-07T23:19:48.868Z,8.00
2023-05-07T23:22:16.865Z,9.00
2023-05-07T23:24:44.795Z,8.13
2023-05-07T23:27:13.896Z,8.00
2023-05-07T23:29:41.552Z,7.63
2023-05-07T23:32:09.778Z,7.73
2023-05-07T23:34:37.715Z,7.43
2023-05-07T23:37:05.366Z,8.77
2023-05-07T23:39:33.404Z,7.70
2023-05-07T23:42:01.120Z,8.60
2023-05-07T23:44:30.129Z,8.20
2023-05-07T23:46:57.917Z,9.03
2023-05-07T23:49:25.825Z,7.80
2023-05-07T23:51:53.653Z,7.13
2023-05-07T23:54:21.376Z,8.73
2023-05-07T23:56:49.316Z,8.33
2023-05-07T23:59:17.040Z,8.07
